Time;durP1;ratioP1;P1;durP2;ratioP2;P2;SDS_P1;SDS_P2;PMS_P1;PMS_P2;Temp;Humidity;BMP_temperature;BMP_pressure;BME280_temperature;BME280_humidity;BME280_pressure;Samples;Min_cycle;Max_cycle;Signal;HPM_P1;HPM_P2
2023/12/01 00:02:16;;;;;;;4.85;4.35;;;0.20;99.90;;;;;;5071463;28;20041;-64
2023/12/01 00:04:41;;;;;;;4.93;4.53;;;0.20;99.90;;;;;;5072982;28;20036;-64
2023/12/01 00:07:07;;;;;;;5.43;4.93;;;0.20;99.90;;;;;;5072921;28;20032;-64
2023/12/01 00:09:33;;;;;;;4.72;4.32;;;0.10;99.90;;;;;;5072727;28;20047;-62
2023/12/01 00:11:58;;;;;;;4.63;4.13;;;0.10;99.90;;;;;;5071319;28;20139;-62
2023/12/01 00:14:24;;;;;;;5.50;4.88;;;0.10;99.90;;;;;;5071264;28;20123;-62
2023/12/01 00:16:50;;;;;;;4.97;4.55;;;0.40;99.90;;;;;;5071279;28;20044;-62
2023/12/01 00:19:15;;;;;;;4.20;3.75;;;0.20;99.90;;;;;;5072638;28;20043;-71
2023/12/01 00:21:41;;;;;;;4.72;4.32;;;0.20;99.90;;;;;;5072758;28;20072;-70
2023/12/01 00:24:07;;;;;;;5.45;4.65;;;0.10;99.90;;;;;;5054565;28;20044;-71
2023/12/01 00:26:32;;;;;;;4.13;3.72;;;0.10;99.90;;;;;;5087942;28;20093;-71
2023/12/01 00:28:58;;;;;;;4.90;4.40;;;0.00;99.90;;;;;;5072493;28;20086;-65
2023/12/01 00:31:24;;;;;;;4.97;4.53;;;0.10;99.90;;;;;;5072691;28;20037;-64
2023/12/01 00:33:51;;;;;;;4.45;4.05;;;-0.30;99.90;;;;;;5072547;28;20033;-64
2023/12/01 00:36:16;;;;;;;3.85;3.45;;;0.00;99.90;;;;;;5072642;28;20488;-64
2023/12/01 00:38:43;;;;;;;4.40;4.00;;;0.00;99.90;;;;;;5071106;28;20107;-66
2023/12/01 00:41:08;;;;;;;3.80;3.47;;;0.00;99.90;;;;;;5072407;28;20434;-61
2023/12/01 00:43:34;;;;;;;3.80;3.40;;;0.60;99.90;;;;;;5072330;28;20059;-62
2023/12/01 00:46:00;;;;;;;4.60;4.20;;;-0.10;99.90;;;;;;5072882;28;20055;-62
2023/12/01 00:48:26;;;;;;;4.43;4.03;;;;;;;;;;5074797;28;20052;-62
2023/12/01 00:50:52;;;;;;;3.45;3.15;;;;;;;;;;5075979;28;20052;-62
2023/12/01 00:53:18;;;;;;;4.53;4.13;;;;;;;;;;5076278;28;20040;-62
2023/12/01 00:55:44;;;;;;;4.60;4.20;;;;;;;;;;5074570;28;20079;-61
2023/12/01 00:58:10;;;;;;;4.60;4.20;;;;;;;;;;5075891;28;20040;-61
2023/12/01 01:00:36;;;;;;;4.05;3.65;;;;;;;;;;5074649;28;20045;-71
2023/12/01 01:03:02;;;;;;;4.53;3.92;;;;;;;;;;5076038;28;20192;-71
2023/12/01 01:05:29;;;;;;;4.55;4.15;;;;;;;;;;5074444;28;20045;-71
2023/12/01 01:07:55;;;;;;;4.50;4.10;;;;;;;;;;5074327;28;20094;-71
2023/12/01 01:10:21;;;;;;;4.35;3.95;;;;;;;;;;5074370;28;20040;-70
2023/12/01 01:12:47;;;;;;;4.40;4.00;;;;;;;;;;5075883;28;20132;-71
2023/12/01 01:15:13;;;;;;;5.05;4.65;;;;;;;;;;5074241;28;20472;-71
2023/12/01 01:17:39;;;;;;;4.38;3.97;;;;;;;;;;5074243;28;20083;-71
2023/12/01 01:20:05;;;;;;;4.47;4.07;;;;;;;;;;5075694;28;20044;-71
2023/12/01 01:22:32;;;;;;;4.95;4.55;;;;;;;;;;5074145;28;20407;-71
2023/12/01 01:24:58;;;;;;;5.45;4.95;;;;;;;;;;5075379;28;20147;-72
2023/12/01 01:27:24;;;;;;;5.18;4.72;;;;;;;;;;5074019;28;20412;-71
2023/12/01 01:29:51;;;;;;;5.50;5.00;;;;;;;;;;5074275;28;20492;-69
2023/12/01 01:32:17;;;;;;;5.70;5.20;;;;;;;;;;5075536;28;20115;-71
2023/12/01 01:34:43;;;;;;;5.53;5.03;;;;;;;;;;5073757;28;20083;-71
2023/12/01 01:37:09;;;;;;;5.40;4.88;;;;;;;;;;5073860;28;20072;-70
2023/12/01 01:39:35;;;;;;;5.55;5.05;;;;;;;;;;5075532;28;20404;-64
2023/12/01 01:42:01;;;;;;;4.97;4.47;;;;;;;;;;5075377;28;20396;-64
2023/12/01 01:44:27;;;;;;;5.47;4.97;;;;;;;;;;5074855;28;20067;-64
2023/12/01 01:46:55;;;;;;;4.97;4.47;;;;;;;;;;5074946;28;20091;-64
2023/12/01 01:49:25;;;;;;;4.90;4.50;;;;;;;;;;5074920;28;20055;-65
2023/12/01 01:51:52;;;;;;;5.28;4.80;;;;;;;;;;5074874;28;20123;-65
2023/12/01 01:54:18;;;;;;;5.43;4.93;;;;;;;;;;5074761;28;20043;-64
2023/12/01 01:56:44;;;;;;;5.22;4.72;;;;;;;;;;5074559;28;20043;-64
2023/12/01 01:59:12;;;;;;;4.80;4.40;;;;;;;;;;5075041;28;20032;-64
2023/12/01 02:01:39;;;;;;;5.80;5.25;;;;;;;;;;5075007;28;20044;-65
2023/12/01 02:04:07;;;;;;;5.20;4.70;;;;;;;;;;5073426;28;20043;-66
2023/12/01 02:06:34;;;;;;;5.82;5.30;;;;;;;;;;5074833;28;20051;-64
2023/12/01 02:09:00;;;;;;;5.78;5.28;;;;;;;;;;5074956;28;20044;-70
2023/12/01 02:11:26;;;;;;;5.50;5.00;;;;;;;;;;5073478;28;20052;-69
2023/12/01 02:13:53;;;;;;;5.70;5.20;;;;;;;;;;5073404;28;20055;-69
2023/12/01 02:16:19;;;;;;;5.93;5.38;;;;;;;;;;5073404;28;20052;-69
2023/12/01 02:18:45;;;;;;;6.13;5.53;;;;;;;;;;5056423;28;20047;-70
2023/12/01 02:21:12;;;;;;;6.18;4.80;;;;;;;;;;5074657;28;20082;-69
2023/12/01 02:23:38;;;;;;;5.78;5.18;;;;;;;;;;5074427;28;20439;-69
2023/12/01 02:26:04;;;;;;;5.80;5.20;;;;;;;;;;5073216;28;20033;-69
2023/12/01 02:28:30;;;;;;;6.43;5.82;;;;;;;;;;5074223;28;20377;-69
2023/12/01 02:30:57;;;;;;;5.47;4.97;;;;;;;;;;5072866;28;20090;-69
2023/12/01 02:33:24;;;;;;;5.80;5.30;;;;;;;;;;5073075;28;20048;-69
2023/12/01 02:35:51;;;;;;;5.85;5.35;;;;;;;;;;5074235;28;20062;-69
2023/12/01 02:38:17;;;;;;;6.07;5.57;;;;;;;;;;5072726;28;20401;-69
2023/12/01 02:40:43;;;;;;;5.63;5.13;;;;;;;;;;5072611;28;20412;-69
2023/12/01 02:43:13;;;;;;;5.50;5.00;;;;;;;;;;5073816;28;20415;-69
2023/12/01 02:45:39;;;;;;;4.80;4.32;;;;;;;;;;5072612;28;20443;-69
2023/12/01 02:48:06;;;;;;;5.57;5.07;;;;;;;;;;5072447;28;20127;-69
2023/12/01 02:50:32;;;;;;;5.47;4.97;;;;;;;;;;5073799;28;20512;-66
2023/12/01 02:52:59;;;;;;;5.40;4.90;;;;;;;;;;5072340;28;20045;-66
2023/12/01 02:55:25;;;;;;;5.93;5.32;;;;;;;;;;5072390;28;20044;-66
2023/12/01 02:57:51;;;;;;;5.80;5.20;;;;;;;;;;5073741;28;20476;-65
2023/12/01 03:00:17;;;;;;;5.43;4.93;;;;;;;;;;5073427;28;20048;-66
2023/12/01 03:02:44;;;;;;;6.32;5.30;;;;;;;;;;5072117;28;20045;-66
2023/12/01 03:05:10;;;;;;;5.97;5.38;;;;;;;;;;5073389;28;20052;-66
2023/12/01 03:07:37;;;;;;;6.35;5.43;;;;;;;;;;5073150;28;20082;-66
2023/12/01 03:10:03;;;;;;;6.20;5.60;;;;;;;;;;5073360;28;20049;-66
2023/12/01 03:12:29;;;;;;;6.07;5.47;;;;;;;;;;5073554;28;20399;-66
2023/12/01 03:14:55;;;;;;;6.32;5.72;;;;;;;;;;5073471;28;20041;-66
2023/12/01 03:17:23;;;;;;;5.40;4.90;;;;;;;;;;5073844;28;20079;-66
2023/12/01 03:19:49;;;;;;;6.18;5.57;;;;;;;;;;5073657;28;20037;-61
2023/12/01 03:22:15;;;;;;;6.18;5.57;;;;;;;;;;5073463;28;20377;-61
2023/12/01 03:24:42;;;;;;;5.85;5.35;;;;;;;;;;5073096;28;20097;-61
2023/12/01 03:27:08;;;;;;;6.35;5.75;;;;;;;;;;5073330;28;20079;-61
2023/12/01 03:29:35;;;;;;;5.57;5.07;;;;;;;;;;5073344;28;20044;-61
2023/12/01 03:32:01;;;;;;;5.85;5.25;;;;;;;;;;5071788;28;20040;-61
2023/12/01 03:34:27;;;;;;;5.97;5.38;;;;;;;;;;5073224;28;20047;-61
2023/12/01 03:36:53;;;;;;;6.13;5.57;;;;;;;;;;5073264;28;20507;-62
2023/12/01 03:39:19;;;;;;;5.65;5.15;;;-1.20;99.90;;;;;;5072905;28;20045;-61
2023/12/01 03:41:48;;;;;;;6.38;5.72;;;-1.00;99.90;;;;;;5071610;28;20058;-61
2023/12/01 03:44:15;;;;;;;6.60;5.97;;;-0.50;99.90;;;;;;5072834;28;20052;-61
2023/12/01 03:46:41;;;;;;;6.88;6.18;;;-0.80;99.90;;;;;;5073143;28;20040;-62
2023/12/01 03:49:06;;;;;;;6.93;6.25;;;-1.10;99.90;;;;;;5073127;28;20548;-62
2023/12/01 03:51:32;;;;;;;6.20;5.60;;;-1.50;99.90;;;;;;5073044;28;20063;-61
2023/12/01 03:53:58;;;;;;;6.70;6.07;;;-0.90;99.90;;;;;;5073063;28;20118;-61
2023/12/01 03:56:24;;;;;;;6.50;5.90;;;-1.60;99.90;;;;;;5072763;28;20044;-62
2023/12/01 03:58:56;;;;;;;5.95;5.38;;;-1.50;99.90;;;;;;5073046;28;20040;-61
2023/12/01 04:01:23;;;;;;;6.22;5.72;;;-1.30;99.90;;;;;;5073036;28;20092;-68
2023/12/01 04:03:48;;;;;;;6.43;5.82;;;-1.30;99.90;;;;;;5071414;28;20043;-68
2023/12/01 04:06:14;;;;;;;5.32;4.80;;;-1.80;99.90;;;;;;5088527;28;20037;-67
2023/12/01 04:08:40;;;;;;;6.38;5.78;;;-1.40;99.90;;;;;;5071452;28;20044;-68
2023/12/01 04:11:06;;;;;;;6.00;5.47;;;;;;;;;;5071388;28;20504;-68
2023/12/01 04:13:32;;;;;;;5.45;4.95;;;;;;;;;;5072615;28;20047;-68
2023/12/01 04:15:59;;;;;;;6.05;5.55;;;;;;;;;;5071309;28;20136;-68
2023/12/01 04:18:27;;;;;;;5.28;4.78;;;;;;;;;;5072892;28;20442;-67
2023/12/01 04:20:53;;;;;;;5.30;4.80;;;-2.00;99.90;;;;;;5076155;28;20119;-68
2023/12/01 04:23:19;;;;;;;5.28;4.78;;;-1.70;99.90;;;;;;5075312;28;20037;-68
2023/12/01 04:25:46;;;;;;;5.07;4.57;;;-2.00;99.90;;;;;;5075244;28;20037;-68
2023/12/01 04:28:13;;;;;;;5.03;4.53;;;-2.10;99.90;;;;;;5075452;28;20052;-68
2023/12/01 04:30:39;;;;;;;4.68;4.25;;;-2.10;99.90;;;;;;5092169;28;20411;-67
2023/12/01 04:33:04;;;;;;;5.15;4.65;;;-1.70;99.90;;;;;;5075121;28;20048;-68
2023/12/01 04:35:32;;;;;;;4.60;4.13;;;;;;;;;;5074955;28;20041;-68
2023/12/01 04:37:59;;;;;;;4.75;4.35;;;;;;;;;;5075279;28;20043;-68
2023/12/01 04:40:26;;;;;;;5.22;4.63;;;;;;;;;;5076516;28;20053;-68
2023/12/01 04:42:53;;;;;;;4.78;4.38;;;;;;;;;;5076006;28;20053;-67
2023/12/01 04:45:20;;;;;;;4.75;4.10;;;;;;;;;;5076169;28;20079;-68
2023/12/01 04:47:50;;;;;;;4.53;4.10;;;;;;;;;;5076352;28;20036;-68
2023/12/01 04:50:16;;;;;;;4.68;4.18;;;;;;;;;;5074773;28;20051;-68
2023/12/01 04:52:46;;;;;;;4.35;3.95;;;;;;;;;;5074692;28;20452;-67
2023/12/01 04:55:14;;;;;;;5.00;4.50;;;;;;;;;;5074660;28;20124;-67
2023/12/01 04:57:40;;;;;;;4.65;4.10;;;;;;;;;;5075220;28;20455;-67
2023/12/01 05:00:20;;;;;;;4.68;4.28;;;;;;;;;;5075950;28;20036;-68
2023/12/01 05:02:47;;;;;;;4.38;3.97;;;;;;;;;;5074522;28;20475;-68
2023/12/01 05:05:15;;;;;;;4.38;3.97;;;;;;;;;;5076050;28;20090;-67
2023/12/01 05:07:41;;;;;;;4.32;3.92;;;;;;;;;;5075906;28;20044;-68
2023/12/01 05:10:14;;;;;;;4.05;3.65;;;;;;;;;;5075797;28;20427;-64
2023/12/01 05:12:40;;;;;;;5.25;4.75;;;;;;;;;;5074355;28;20045;-64
2023/12/01 05:15:15;;;;;;;4.40;4.00;;;;;;;;;;5074309;28;20124;-64
2023/12/01 05:17:41;;;;;;;4.20;3.80;;;;;;;;;;5074317;28;20412;-64
2023/12/01 05:20:15;;;;;;;4.45;4.05;;;;;;;;;;5075474;28;20043;-64
2023/12/01 05:22:41;;;;;;;4.28;3.88;;;;;;;;;;5075522;28;20449;-63
2023/12/01 05:25:13;;;;;;;4.53;4.13;;;;;;;;;;5075410;28;20093;-63
2023/12/01 05:27:39;;;;;;;4.70;4.30;;;;;;;;;;5074105;28;20049;-63
2023/12/01 05:30:06;;;;;;;4.38;3.97;;;;;;;;;;5075327;28;20055;-64
2023/12/01 05:32:32;;;;;;;4.45;4.05;;;;;;;;;;5074649;28;20041;-63
2023/12/01 05:34:58;;;;;;;4.18;3.78;;;;;;;;;;5075401;28;20128;-63
2023/12/01 05:37:24;;;;;;;3.88;3.58;;;;;;;;;;5075514;28;20111;-64
2023/12/01 05:39:50;;;;;;;4.30;3.90;;;;;;;;;;5075366;28;20123;-61
2023/12/01 05:42:16;;;;;;;3.92;3.55;;;;;;;;;;5075569;28;20416;-61
2023/12/01 05:44:42;;;;;;;4.22;3.83;;;;;;;;;;5074953;28;20056;-61
2023/12/01 05:47:08;;;;;;;4.10;3.70;;;-2.90;99.90;;;;;;5075019;28;20036;-61
2023/12/01 05:49:34;;;;;;;4.40;4.00;;;-3.00;99.90;;;;;;5075172;28;20036;-60
2023/12/01 05:51:59;;;;;;;4.15;3.75;;;-3.10;99.90;;;;;;5075196;28;20510;-60
2023/12/01 05:54:26;;;;;;;4.50;4.07;;;-3.10;99.90;;;;;;5073747;28;20127;-61
2023/12/01 05:56:52;;;;;;;4.32;3.92;;;-3.10;99.90;;;;;;5075243;28;20052;-61
2023/12/01 05:59:18;;;;;;;4.15;3.75;;;-3.10;99.90;;;;;;5073536;28;20029;-61
2023/12/01 06:01:44;;;;;;;3.80;3.50;;;-2.50;99.90;;;;;;5073854;28;20036;-60
2023/12/01 06:04:10;;;;;;;3.60;3.30;;;-3.20;99.90;;;;;;5075039;28;20040;-60
2023/12/01 06:06:36;;;;;;;4.03;3.63;;;-3.10;99.90;;;;;;5074715;28;20033;-60
2023/12/01 06:09:02;;;;;;;4.78;4.28;;;-3.10;99.90;;;;;;5074779;28;20400;-61
2023/12/01 06:11:28;;;;;;;4.10;3.72;;;-2.50;99.90;;;;;;5074888;28;20036;-61
2023/12/01 06:13:54;;;;;;;4.38;3.97;;;-3.20;99.90;;;;;;5073174;28;20082;-60
2023/12/01 06:16:19;;;;;;;4.43;4.03;;;-3.20;99.90;;;;;;5074621;28;20477;-61
2023/12/01 06:18:45;;;;;;;3.65;3.35;;;-3.20;99.90;;;;;;5074596;28;20447;-61
2023/12/01 06:21:10;;;;;;;4.30;3.90;;;-3.30;99.90;;;;;;5074485;28;20047;-62
2023/12/01 06:23:36;;;;;;;4.35;3.95;;;-3.30;99.90;;;;;;5074426;28;20123;-63
2023/12/01 06:26:02;;;;;;;4.60;4.13;;;-3.30;99.90;;;;;;5089900;28;20501;-64
2023/12/01 06:28:27;;;;;;;3.72;3.15;;;-3.30;99.90;;;;;;5074385;28;20534;-62
2023/12/01 06:30:53;;;;;;;3.65;3.30;;;-3.30;99.90;;;;;;5074184;28;20036;-62
2023/12/01 06:33:19;;;;;;;4.07;3.70;;;-3.30;99.90;;;;;;5074349;28;20176;-66
2023/12/01 06:35:44;;;;;;;3.63;3.33;;;-3.40;99.90;;;;;;5072594;28;20048;-63
2023/12/01 06:38:10;;;;;;;3.85;3.38;;;-3.30;99.90;;;;;;5073956;28;20120;-63
2023/12/01 06:40:36;;;;;;;3.92;3.53;;;-3.30;99.90;;;;;;5074061;28;20488;-63
2023/12/01 06:43:09;;;;;;;4.28;3.88;;;-3.30;99.90;;;;;;5073799;28;20048;-63
2023/12/01 06:45:36;;;;;;;4.00;3.60;;;-3.40;99.90;;;;;;5074172;28;20049;-64
2023/12/01 06:48:01;;;;;;;3.50;3.20;;;-3.30;99.90;;;;;;5074033;28;20377;-63
2023/12/01 06:50:27;;;;;;;3.60;3.25;;;-3.30;99.90;;;;;;5074102;28;20044;-73
2023/12/01 06:52:53;;;;;;;3.55;3.25;;;-3.40;99.90;;;;;;5073994;28;20086;-71
2023/12/01 06:55:19;;;;;;;3.38;3.08;;;-3.40;99.90;;;;;;5072523;28;20484;-71
2023/12/01 06:57:46;;;;;;;3.75;3.45;;;-3.40;99.90;;;;;;5072547;28;20032;-71
2023/12/01 07:00:30;;;;;;;3.53;3.22;;;-3.40;99.90;;;;;;5055616;28;20051;-71
2023/12/01 07:03:04;;;;;;;3.70;3.40;;;-3.40;99.90;;;;;;5073932;28;20041;-61
2023/12/01 07:05:31;;;;;;;4.20;3.67;;;-3.40;99.90;;;;;;5073824;28;20377;-60
2023/12/01 07:07:58;;;;;;;3.50;3.20;;;-3.40;99.90;;;;;;5072362;28;20053;-60
2023/12/01 07:10:25;;;;;;;3.78;3.47;;;-3.40;99.90;;;;;;5072259;28;20047;-60
2023/12/01 07:12:52;;;;;;;4.10;3.70;;;-3.40;99.90;;;;;;5073719;28;20036;-60
2023/12/01 07:15:21;;;;;;;3.88;3.58;;;-3.50;99.90;;;;;;5072102;28;20045;-60
2023/12/01 07:17:55;;;;;;;2.92;2.63;;;-3.40;99.90;;;;;;5072086;28;20045;-60
2023/12/01 07:20:21;;;;;;;3.45;3.15;;;-3.50;99.90;;;;;;5073341;28;20119;-60
2023/12/01 07:22:48;;;;;;;3.47;3.17;;;-3.50;99.90;;;;;;5073254;28;20086;-61
2023/12/01 07:25:22;;;;;;;3.40;3.10;;;-3.50;99.90;;;;;;5073238;28;20037;-61
2023/12/01 07:27:56;;;;;;;4.00;3.60;;;-3.50;99.90;;;;;;5073860;28;20111;-60
2023/12/01 07:30:22;;;;;;;4.18;3.78;;;-3.50;99.90;;;;;;5073333;28;20119;-61
2023/12/01 07:32:49;;;;;;;3.53;3.22;;;-3.50;99.90;;;;;;5073304;28;20036;-61
2023/12/01 07:35:15;;;;;;;3.80;3.40;;;-3.40;99.90;;;;;;5071752;28;20412;-61
2023/12/01 07:37:42;;;;;;;3.28;2.97;;;-3.40;99.90;;;;;;5071831;28;20064;-61
2023/12/01 07:40:12;;;;;;;3.80;3.40;;;-3.40;99.90;;;;;;5055092;28;20076;-61
2023/12/01 07:42:41;;;;;;;4.15;3.75;;;-3.40;99.90;;;;;;5073042;28;20491;-60
2023/12/01 07:45:07;;;;;;;4.82;3.28;;;-3.40;99.90;;;;;;5072941;28;20045;-60
2023/12/01 07:47:33;;;;;;;3.97;3.58;;;-3.40;99.90;;;;;;5088828;28;20044;-60
2023/12/01 07:49:59;;;;;;;3.90;3.47;;;-3.40;99.90;;;;;;5088784;28;20037;-61
2023/12/01 07:52:25;;;;;;;3.63;3.30;;;-3.40;99.90;;;;;;5073154;28;20040;-61
2023/12/01 07:54:52;;;;;;;4.10;3.63;;;-3.40;99.90;;;;;;5072625;28;20040;-61
2023/12/01 07:57:18;;;;;;;3.75;3.35;;;-3.40;99.90;;;;;;5073057;28;20033;-61
2023/12/01 07:59:43;;;;;;;4.38;3.97;;;-3.30;99.90;;;;;;5072844;28;20075;-61
2023/12/01 08:02:09;;;;;;;4.15;3.75;;;-3.30;99.90;;;;;;5073075;28;20071;-65
2023/12/01 08:04:35;;;;;;;3.63;3.33;;;-3.20;99.90;;;;;;5073033;28;20430;-65
2023/12/01 08:07:01;;;;;;;6.07;4.35;;;-3.20;99.90;;;;;;5088093;28;20408;-65
2023/12/01 08:09:31;;;;;;;4.03;3.63;;;-3.20;99.90;;;;;;5072720;28;20076;-65
2023/12/01 08:11:58;;;;;;;3.38;3.08;;;-3.10;99.90;;;;;;5072584;28;20052;-65
2023/12/01 08:14:25;;;;;;;4.10;3.70;;;-3.10;99.90;;;;;;5072836;28;20029;-65
2023/12/01 08:16:51;;;;;;;3.90;3.42;;;-3.10;99.90;;;;;;5072661;28;20063;-66
2023/12/01 08:19:17;;;;;;;3.78;3.42;;;-3.00;99.90;;;;;;5072679;28;20131;-66
2023/12/01 08:21:44;;;;;;;4.20;3.67;;;-3.00;99.90;;;;;;5072641;28;20082;-64
2023/12/01 08:24:10;;;;;;;3.67;3.38;;;-3.00;99.90;;;;;;5072884;28;20554;-66
2023/12/01 08:26:37;;;;;;;3.58;3.13;;;-3.00;99.90;;;;;;5072772;28;20033;-64
2023/12/01 08:29:03;;;;;;;4.35;3.95;;;-2.90;99.90;;;;;;5072432;28;20046;-63
2023/12/01 08:31:30;;;;;;;4.50;4.10;;;-2.90;99.90;;;;;;5072383;28;20112;-63
2023/12/01 08:33:56;;;;;;;4.13;3.72;;;-2.80;99.90;;;;;;5072526;28;20408;-63
2023/12/01 08:36:22;;;;;;;4.00;3.60;;;-2.70;99.90;;;;;;5072373;28;20040;-64
2023/12/01 08:38:47;;;;;;;3.80;3.40;;;-2.30;99.90;;;;;;5072682;28;20036;-64
2023/12/01 08:41:13;;;;;;;3.80;3.42;;;-2.40;99.90;;;;;;5072621;28;20040;-64
2023/12/01 08:43:38;;;;;;;4.00;3.63;;;-2.10;99.90;;;;;;5072320;28;20514;-63
2023/12/01 08:46:04;;;;;;;4.80;4.25;;;-2.30;99.90;;;;;;5071193;28;20051;-65
2023/12/01 08:48:30;;;;;;;3.85;3.45;;;-2.20;99.90;;;;;;5072396;28;20044;-64
2023/12/01 08:50:55;;;;;;;4.90;4.13;;;-2.10;99.90;;;;;;5071922;28;20044;-64
2023/12/01 08:53:22;;;;;;;4.30;3.78;;;-2.00;99.90;;;;;;5072385;28;20041;-64
2023/12/01 08:55:51;;;;;;;4.03;3.72;;;-1.90;99.90;;;;;;5071741;28;20049;-64
2023/12/01 08:58:19;;;;;;;4.45;3.88;;;-1.70;99.90;;;;;;5072221;28;20041;-64
2023/12/01 09:00:45;;;;;;;4.28;3.88;;;-1.80;99.90;;;;;;5072347;28;20028;-64
2023/12/01 09:03:11;;;;;;;6.07;5.45;;;-1.70;99.90;;;;;;5071913;28;20086;-64
2023/12/01 09:05:36;;;;;;;5.05;4.55;;;-1.70;99.90;;;;;;5072234;28;20036;-64
2023/12/01 09:08:05;;;;;;;4.30;3.90;;;-1.70;99.90;;;;;;5075414;28;20476;-64
2023/12/01 09:10:31;;;;;;;4.10;3.65;;;-1.60;99.90;;;;;;5075896;28;20043;-65
2023/12/01 09:12:57;;;;;;;4.13;3.67;;;-1.60;99.90;;;;;;5075681;28;20080;-66
2023/12/01 09:15:22;;;;;;;3.90;3.60;;;-1.60;99.90;;;;;;5090950;28;20080;-66
2023/12/01 09:17:48;;;;;;;4.20;3.80;;;-1.60;99.90;;;;;;5075665;28;20081;-65
2023/12/01 09:20:14;;;;;;;4.85;4.45;;;-1.50;99.90;;;;;;5074026;28;20435;-66
2023/12/01 09:22:40;;;;;;;3.67;3.38;;;-1.60;99.90;;;;;;5075587;28;20408;-66
2023/12/01 09:25:06;;;;;;;4.30;3.90;;;-1.60;99.90;;;;;;5075513;28;20049;-66
2023/12/01 09:27:32;;;;;;;4.15;3.75;;;-1.60;99.90;;;;;;5075378;28;20449;-65
2023/12/01 09:29:58;;;;;;;4.22;3.83;;;-1.50;99.90;;;;;;5075089;28;20124;-66
2023/12/01 09:32:23;;;;;;;4.35;3.95;;;-1.50;99.90;;;;;;5075362;28;20040;-65
2023/12/01 09:34:50;;;;;;;4.10;3.70;;;-1.10;99.90;;;;;;5075283;28;20369;-66
2023/12/01 09:37:16;;;;;;;3.72;3.42;;;-1.50;99.90;;;;;;5075211;28;20076;-65
2023/12/01 09:39:42;;;;;;;4.10;3.75;;;-1.60;99.90;;;;;;5073632;28;20515;-65
2023/12/01 09:42:08;;;;;;;3.78;3.47;;;-1.60;99.90;;;;;;5090731;28;20036;-73
2023/12/01 09:44:37;;;;;;;4.43;4.03;;;-1.60;99.90;;;;;;5090416;28;20144;-72
2023/12/01 09:47:10;;;;;;;4.03;3.65;;;-1.60;99.90;;;;;;5074959;28;20053;-73
2023/12/01 09:49:38;;;;;;;3.85;3.55;;;-1.60;99.90;;;;;;5073729;28;20051;-71
2023/12/01 09:52:04;;;;;;;4.10;3.70;;;-1.60;99.90;;;;;;5073554;28;20048;-72
2023/12/01 09:54:31;;;;;;;3.75;3.45;;;-1.50;99.90;;;;;;5073434;28;20054;-74
2023/12/01 09:56:58;;;;;;;4.13;3.78;;;-1.50;99.90;;;;;;5073502;28;20049;-74
2023/12/01 09:59:23;;;;;;;4.30;3.90;;;-1.40;99.90;;;;;;5074860;28;20138;-73
2023/12/01 10:01:52;;;;;;;3.90;3.60;;;-1.00;99.90;;;;;;5073490;28;20115;-75
2023/12/01 10:04:19;;;;;;;4.20;3.80;;;-1.30;99.90;;;;;;5073733;28;20040;-74
2023/12/01 10:06:45;;;;;;;3.65;3.35;;;-1.40;99.90;;;;;;5074619;28;20037;-74
2023/12/01 10:09:12;;;;;;;3.70;3.40;;;-1.30;99.90;;;;;;5074792;28;20400;-74
2023/12/01 10:11:38;;;;;;;4.50;4.10;;;-1.00;99.90;;;;;;5075095;28;20094;-75
2023/12/01 10:14:07;;;;;;;3.85;3.45;;;-1.10;99.90;;;;;;5073414;28;20496;-69
2023/12/01 10:16:35;;;;;;;4.13;3.72;;;;;;;;;;5074797;28;20088;-73
2023/12/01 10:19:01;;;;;;;4.07;3.67;;;;;;;;;;5072771;28;20458;-73
2023/12/01 10:21:43;;;;;;;3.95;3.60;;;;;;;;;;5074743;28;20119;-64
2023/12/01 10:24:28;;;;;;;3.90;3.60;;;;;;;;;;5074583;28;20450;-64
2023/12/01 10:26:55;;;;;;;4.00;3.60;;;-0.80;99.90;;;;;;5074288;28;20041;-64
2023/12/01 10:29:24;;;;;;;3.83;3.53;;;-0.70;99.90;;;;;;5074490;28;20040;-64
2023/12/01 10:31:50;;;;;;;3.35;3.05;;;-0.60;99.90;;;;;;5074522;28;20041;-64
2023/12/01 10:34:16;;;;;;;3.80;3.50;;;-0.50;99.90;;;;;;5074212;28;20028;-66
2023/12/01 10:36:42;;;;;;;3.38;2.97;;;-0.50;99.90;;;;;;5072872;28;20110;-64
2023/12/01 10:39:10;;;;;;;3.88;3.47;;;-0.50;99.90;;;;;;5074226;28;20044;-65
2023/12/01 10:41:39;;;;;;;3.50;3.20;;;-0.50;99.90;;;;;;5073822;28;20041;-64
2023/12/01 10:44:05;;;;;;;3.88;3.47;;;-0.50;99.90;;;;;;5072355;28;20405;-64
2023/12/01 10:46:33;;;;;;;3.38;3.08;;;-0.40;99.90;;;;;;5073944;28;20044;-64
2023/12/01 10:49:00;;;;;;;3.20;2.90;;;-0.30;99.90;;;;;;5073468;28;20055;-63
2023/12/01 10:51:27;;;;;;;3.38;3.08;;;-0.30;99.90;;;;;;5073931;28;20123;-61
2023/12/01 10:53:55;;;;;;;3.95;3.65;;;-0.30;99.90;;;;;;5073670;28;20037;-61
2023/12/01 10:56:24;;;;;;;3.92;3.58;;;-0.20;99.90;;;;;;5073827;28;20040;-61
2023/12/01 10:58:53;;;;;;;4.13;3.72;;;-0.10;99.90;;;;;;5089211;28;20044;-61
2023/12/01 11:01:22;;;;;;;3.55;3.25;;;0.00;99.90;;;;;;5089068;28;20507;-61
2023/12/01 11:03:48;;;;;;;3.65;3.35;;;0.10;99.90;;;;;;5073368;28;20040;-61
2023/12/01 11:06:28;;;;;;;3.20;2.90;;;0.10;99.90;;;;;;5073658;28;20048;-61
2023/12/01 11:09:14;;;;;;;3.30;3.00;;;0.00;99.90;;;;;;5072488;28;20044;-62
2023/12/01 11:12:09;;;;;;;3.30;3.00;;;0.10;99.90;;;;;;5055949;28;20040;-61
2023/12/01 11:14:36;;;;;;;3.30;2.80;;;0.10;99.90;;;;;;5071521;28;20123;-61
2023/12/01 11:17:04;;;;;;;3.80;3.47;;;0.10;99.90;;;;;;5073614;28;20041;-61
2023/12/01 11:19:39;;;;;;;3.88;3.58;;;0.10;99.90;;;;;;5072010;28;20044;-61
2023/12/01 11:22:27;;;;;;;3.38;3.08;;;0.10;99.90;;;;;;5055272;28;20037;-61
2023/12/01 11:24:53;;;;;;;3.45;3.15;;;0.10;99.90;;;;;;5072884;28;20163;-61
2023/12/01 11:27:19;;;;;;;3.17;2.88;;;0.00;99.90;;;;;;5071793;28;20040;-61
2023/12/01 11:30:12;;;;;;;3.42;3.13;;;0.00;99.90;;;;;;5072709;28;20102;-61
2023/12/01 11:32:43;;;;;;;3.33;3.03;;;0.00;99.90;;;;;;5071703;28;20125;-63
2023/12/01 11:35:09;;;;;;;3.22;2.90;;;0.00;99.90;;;;;;5072983;28;20048;-64
2023/12/01 11:37:54;;;;;;;4.03;3.63;;;0.10;99.90;;;;;;5072994;28;20079;-63
2023/12/01 11:40:22;;;;;;;3.50;3.20;;;0.00;99.90;;;;;;5073030;28;20079;-64
2023/12/01 11:42:49;;;;;;;3.30;3.00;;;0.10;99.90;;;;;;5071526;28;20057;-64
2023/12/01 11:45:15;;;;;;;3.13;2.83;;;0.10;99.90;;;;;;5073222;28;20059;-63
2023/12/01 11:47:41;;;;;;;2.97;2.75;;;0.10;99.90;;;;;;5071695;28;20484;-63
2023/12/01 11:50:12;;;;;;;2.92;2.72;;;0.10;99.90;;;;;;5072938;28;20163;-63
2023/12/01 11:52:38;;;;;;;4.03;3.63;;;0.10;99.90;;;;;;5072990;28;20404;-63
2023/12/01 11:55:14;;;;;;;2.80;2.60;;;0.20;99.90;;;;;;5072789;28;20055;-63
2023/12/01 11:57:50;;;;;;;3.17;2.88;;;0.20;99.90;;;;;;5073078;28;20079;-63
2023/12/01 12:00:16;;;;;;;3.75;3.45;;;0.20;99.90;;;;;;5073063;28;20043;-63
2023/12/01 12:02:42;;;;;;;3.78;3.47;;;0.20;99.90;;;;;;5073140;28;20476;-63
2023/12/01 12:05:08;;;;;;;3.75;3.45;;;0.20;99.90;;;;;;5073039;28;20043;-63
2023/12/01 12:07:35;;;;;;;3.80;3.50;;;0.20;99.90;;;;;;5071450;28;20036;-63
2023/12/01 12:10:01;;;;;;;4.18;3.78;;;0.20;99.90;;;;;;5072991;28;20424;-63
2023/12/01 12:12:27;;;;;;;3.47;3.17;;;0.30;99.90;;;;;;5072707;28;20033;-63
2023/12/01 12:14:55;;;;;;;3.67;3.38;;;0.30;99.90;;;;;;5072904;28;20036;-63
2023/12/01 12:17:22;;;;;;;3.67;3.38;;;0.20;99.90;;;;;;5072501;28;20037;-64
2023/12/01 12:19:47;;;;;;;3.78;3.47;;;0.40;99.90;;;;;;5072698;28;20116;-63
2023/12/01 12:22:14;;;;;;;3.92;3.63;;;0.30;99.90;;;;;;5072702;28;20162;-64
2023/12/01 12:24:44;;;;;;;3.33;3.03;;;0.30;99.90;;;;;;5072846;28;20529;-63
2023/12/01 12:27:10;;;;;;;3.85;3.53;;;0.30;99.90;;;;;;5071475;28;20041;-63
2023/12/01 12:29:35;;;;;;;3.55;3.25;;;0.30;99.90;;;;;;5072715;28;20189;-63
2023/12/01 12:32:01;;;;;;;3.28;2.97;;;0.30;99.90;;;;;;5072437;28;20048;-64
2023/12/01 12:34:27;;;;;;;3.22;2.92;;;0.30;99.90;;;;;;5072397;28;20040;-63
2023/12/01 12:36:53;;;;;;;3.38;3.08;;;0.20;99.90;;;;;;5072687;28;20396;-63
2023/12/01 12:39:26;;;;;;;3.28;2.97;;;0.30;99.90;;;;;;5072336;28;20032;-62
2023/12/01 12:41:53;;;;;;;3.28;2.97;;;0.30;99.90;;;;;;5074798;28;20573;-71
2023/12/01 12:44:19;;;;;;;4.18;3.60;;;0.30;99.90;;;;;;5076073;28;20408;-73
2023/12/01 12:47:02;;;;;;;3.58;3.28;;;0.40;99.90;;;;;;5076066;28;20033;-71
2023/12/01 12:49:31;;;;;;;3.65;3.35;;;0.50;99.90;;;;;;5074797;28;20041;-72
2023/12/01 12:52:02;;;;;;;3.20;2.90;;;0.50;99.90;;;;;;5074842;28;20040;-72
2023/12/01 12:54:28;;;;;;;4.35;3.95;;;0.60;99.90;;;;;;5076174;28;20040;-71
2023/12/01 12:56:54;;;;;;;4.30;3.90;;;0.70;99.90;;;;;;5076257;28;20039;-70
2023/12/01 12:59:20;;;;;;;3.53;3.22;;;0.70;99.90;;;;;;5076219;28;20104;-71
2023/12/01 13:01:45;;;;;;;3.53;3.22;;;0.70;99.90;;;;;;5075958;28;20051;-71
2023/12/01 13:04:14;;;;;;;3.22;2.95;;;0.80;99.90;;;;;;5075803;28;20037;-72
2023/12/01 13:06:40;;;;;;;3.60;3.30;;;1.30;99.90;;;;;;5076089;28;20036;-69
2023/12/01 13:09:05;;;;;;;4.13;3.72;;;0.50;99.90;;;;;;5075828;28;20046;-72
2023/12/01 13:11:31;;;;;;;4.13;3.75;;;0.60;99.90;;;;;;5075854;28;20045;-60
2023/12/01 13:13:57;;;;;;;3.78;3.47;;;0.70;99.90;;;;;;5076114;28;20545;-60
2023/12/01 13:16:23;;;;;;;4.10;3.70;;;0.60;99.90;;;;;;5075783;28;20094;-60
2023/12/01 13:18:48;;;;;;;3.47;3.17;;;0.80;99.90;;;;;;5076119;28;20075;-59
2023/12/01 13:21:14;;;;;;;3.78;3.47;;;0.50;99.90;;;;;;5075538;28;20441;-60
2023/12/01 13:23:40;;;;;;;3.30;3.00;;;0.70;99.90;;;;;;5075843;28;20036;-60
2023/12/01 13:26:06;;;;;;;3.08;2.85;;;1.10;99.90;;;;;;5074275;28;20048;-60